createdAt,value
2018-04-11T00:00:03.769Z,18.17
2018-04-11T00:02:31.433Z,18.70
2018-04-11T00:04:59.136Z,19.63
2018-04-11T00:07:27.269Z,19.40
2018-04-11T00:09:55.288Z,20.00
2018-04-11T00:12:23.704Z,19.23
2018-04-11T00:14:51.311Z,19.90
2018-04-11T00:17:19.019Z,19.13
2018-04-11T00:19:47.098Z,19.53
2018-04-11T00:22:16.284Z,19.97
2018-04-11T00:24:43.981Z,20.63
2018-04-11T00:27:13.113Z,18.53
2018-04-11T00:29:40.768Z,19.37
2018-04-11T00:32:09.229Z,19.50
2018-04-11T00:34:37.262Z,18.27
2018-04-11T00:37:05.277Z,19.10
2018-04-11T00:39:33.694Z,19.80
2018-04-11T00:42:01.311Z,19.40
2018-04-11T00:44:29.025Z,19.60
2018-04-11T00:46:57.799Z,19.20
2018-04-11T00:49:26.315Z,19.63
2018-04-11T00:51:54.024Z,19.73
2018-04-11T00:54:22.034Z,20.87
2018-04-11T00:56:50.084Z,20.83
2018-04-11T00:59:17.734Z,19.10
2018-04-11T01:01:46.181Z,18.70
2018-04-11T01:04:14.558Z,19.87
2018-04-11T01:06:43.336Z,18.70
2018-04-11T01:09:11.752Z,19.17
2018-04-11T01:11:40.723Z,19.80
2018-04-11T01:14:09.162Z,20.50
2018-04-11T01:16:37.635Z,19.43
2018-04-11T01:19:05.284Z,19.50
2018-04-11T01:21:33.708Z,19.50
2018-04-11T01:24:02.684Z,19.80
2018-04-11T01:26:31.109Z,20.40
2018-04-11T01:28:59.537Z,20.47
2018-04-11T01:31:29.179Z,20.27
2018-04-11T01:33:58.336Z,18.80
2018-04-11T01:36:26.347Z,20.37
2018-04-11T01:38:54.816Z,21.80
2018-04-11T01:41:23.982Z,19.80
2018-04-11T01:43:52.075Z,18.00
2018-04-11T01:46:20.164Z,20.70
2018-04-11T01:48:48.933Z,18.97
2018-04-11T01:51:17.766Z,20.10
2018-04-11T01:53:45.391Z,19.17
2018-04-11T01:56:14.577Z,19.73
2018-04-11T01:58:43.633Z,20.07
2018-04-11T02:01:11.647Z,20.03
2018-04-11T02:03:40.417Z,21.13
2018-04-11T02:06:08.456Z,20.43
2018-04-11T02:08:36.559Z,20.37
2018-04-11T02:11:04.648Z,20.53
2018-04-11T02:13:32.731Z,22.03
2018-04-11T02:16:01.186Z,20.90
2018-04-11T02:18:28.837Z,20.47
2018-04-11T02:20:58.009Z,21.20
2018-04-11T02:23:26.433Z,21.10
2018-04-11T02:25:55.500Z,20.17
2018-04-11T02:28:23.568Z,20.43
2018-04-11T02:30:51.214Z,19.80
2018-04-11T02:33:19.676Z,20.23
2018-04-11T02:35:47.295Z,21.27
2018-04-11T02:38:15.730Z,19.93
2018-04-11T02:40:44.156Z,20.07
2018-04-11T02:43:11.809Z,21.77
2018-04-11T02:45:39.523Z,20.10
2018-04-11T02:48:07.171Z,21.40
2018-04-11T02:50:34.816Z,19.67
2018-04-11T02:53:03.316Z,21.50
2018-04-11T02:55:32.104Z,20.30
2018-04-11T02:57:59.747Z,20.40
2018-04-11T03:00:28.875Z,20.17
2018-04-11T03:02:58.111Z,20.87
2018-04-11T03:05:25.796Z,20.17
2018-04-11T03:07:54.988Z,21.50
2018-04-11T03:10:22.707Z,22.77
2018-04-11T03:12:50.359Z,20.97
2018-04-11T03:15:18.054Z,20.00
2018-04-11T03:17:46.066Z,19.80
2018-04-11T03:20:14.130Z,20.40
2018-04-11T03:22:42.151Z,19.80
2018-04-11T03:25:09.822Z,18.83
2018-04-11T03:27:39.036Z,21.00
2018-04-11T03:30:06.711Z,20.47
2018-04-11T03:32:35.102Z,20.73
2018-04-11T03:35:03.591Z,20.67
2018-04-11T03:37:31.623Z,19.30
2018-04-11T03:40:00.063Z,19.90
2018-04-11T03:42:27.717Z,21.50
2018-04-11T03:44:56.184Z,19.80
2018-04-11T03:47:25.331Z,18.73
2018-04-11T03:49:53.020Z,19.33
2018-04-11T03:52:20.643Z,18.67
2018-04-11T03:54:48.694Z,18.30
2018-04-11T03:57:16.733Z,18.50
2018-04-11T03:59:44.782Z,19.50
2018-04-11T04:02:12.850Z,19.37
2018-04-11T04:04:40.881Z,19.17
2018-04-11T04:07:09.307Z,18.30
2018-04-11T04:09:37.736Z,20.83
2018-04-11T04:12:06.607Z,18.53
2018-04-11T04:14:46.920Z,20.40
2018-04-11T04:17:28.338Z,19.07
2018-04-11T04:20:07.837Z,17.50
2018-04-11T04:22:35.498Z,18.80
2018-04-11T04:25:03.588Z,17.43
2018-04-11T04:27:32.032Z,19.23
2018-04-11T04:29:59.712Z,17.57
2018-04-11T04:32:28.938Z,18.30
2018-04-11T04:34:57.122Z,18.20
2018-04-11T04:37:25.153Z,17.57
2018-04-11T04:39:53.577Z,16.80
2018-04-11T04:42:21.283Z,17.50
2018-04-11T04:44:48.894Z,17.47
2018-04-11T04:47:17.352Z,17.30
2018-04-11T04:49:45.046Z,15.93
2018-04-11T04:52:13.139Z,18.03
2018-04-11T04:54:41.554Z,17.20
2018-04-11T04:57:09.631Z,16.97
2018-04-11T04:59:37.250Z,17.77
2018-04-11T05:02:05.692Z,17.67
2018-04-11T05:04:33.799Z,16.60
2018-04-11T05:07:02.610Z,18.17
2018-04-11T05:09:30.295Z,16.90
2018-04-11T05:11:57.952Z,16.53
2018-04-11T05:14:25.574Z,16.63
2018-04-11T05:16:55.019Z,17.60
2018-04-11T05:19:22.701Z,17.63
2018-04-11T05:21:51.143Z,17.60
2018-04-11T05:24:19.578Z,17.47
2018-04-11T05:26:48.711Z,16.03
2018-04-11T05:29:17.178Z,16.37
2018-04-11T05:31:45.629Z,15.80
2018-04-11T05:34:14.084Z,17.50
2018-04-11T05:36:42.568Z,17.50
2018-04-11T05:39:11.765Z,15.87
2018-04-11T05:41:39.375Z,15.97
2018-04-11T05:44:07.782Z,15.90
2018-04-11T05:46:36.225Z,14.57
2018-04-11T05:49:03.893Z,15.60
2018-04-11T05:51:32.009Z,17.03
2018-04-11T05:54:00.840Z,16.03
2018-04-11T05:56:29.689Z,15.83
2018-04-11T05:58:57.411Z,15.10
2018-04-11T06:01:25.495Z,16.10
2018-04-11T06:03:53.984Z,15.63
2018-04-11T06:06:22.785Z,14.93
2018-04-11T06:08:50.463Z,16.10
2018-04-11T06:11:18.520Z,15.43
2018-04-11T06:13:46.575Z,15.33
2018-04-11T06:16:15.068Z,15.80
2018-04-11T06:18:42.706Z,16.63
2018-04-11T06:21:10.774Z,16.50
2018-04-11T06:23:39.597Z,17.23
2018-04-11T06:26:07.638Z,17.67
2018-04-11T06:28:36.075Z,17.03
2018-04-11T06:31:04.165Z,18.00
2018-04-11T06:33:32.572Z,20.13
2018-04-11T06:36:00.671Z,17.83
2018-04-11T06:38:28.305Z,19.83
2018-04-11T06:40:56.780Z,19.23
2018-04-11T06:43:24.544Z,20.70
2018-04-11T06:45:52.968Z,19.83
2018-04-11T06:48:20.619Z,19.93
2018-04-11T06:50:48.663Z,19.97
2018-04-11T06:53:17.135Z,20.57
2018-04-11T06:55:46.082Z,19.47
2018-04-11T06:58:14.625Z,18.93
2018-04-11T07:00:42.665Z,19.50
2018-04-11T07:03:10.334Z,20.10
2018-04-11T07:05:38.563Z,20.57
2018-04-11T07:08:06.627Z,19.40
2018-04-11T07:10:34.680Z,20.27
2018-04-11T07:13:03.131Z,20.40
2018-04-11T07:15:31.565Z,23.73
2018-04-11T07:18:00.340Z,24.13
2018-04-11T07:20:28.804Z,23.13
2018-04-11T07:22:57.214Z,23.20
2018-04-11T07:25:24.931Z,21.50
2018-04-11T07:27:53.333Z,22.83
2018-04-11T07:30:21.370Z,22.60
2018-04-11T07:32:50.189Z,20.03
2018-04-11T07:35:18.273Z,22.20
2018-04-11T07:37:47.146Z,20.80
2018-04-11T07:40:15.233Z,21.80
2018-04-11T07:42:43.279Z,22.07
2018-04-11T07:45:11.345Z,23.30
2018-04-11T07:47:39.003Z,24.80
2018-04-11T07:50:07.105Z,22.57
2018-04-11T07:52:35.197Z,22.97
2018-04-11T07:55:03.722Z,23.83
2018-04-11T07:57:31.345Z,23.83
2018-04-11T07:59:59.822Z,26.07
2018-04-11T08:02:27.498Z,25.17
2018-04-11T08:04:55.584Z,24.37
2018-04-11T08:07:23.635Z,24.10
2018-04-11T08:09:52.024Z,24.17
2018-04-11T08:12:20.106Z,24.37
2018-04-11T08:14:47.855Z,22.93
2018-04-11T08:17:16.327Z,23.30
2018-04-11T08:19:44.113Z,23.13
2018-04-11T08:22:12.578Z,24.27
2018-04-11T08:24:40.199Z,22.27
2018-04-11T08:27:08.681Z,21.07
2018-04-11T08:29:37.722Z,22.13
2018-04-11T08:32:05.382Z,22.20
2018-04-11T08:34:33.123Z,20.67
2018-04-11T08:37:01.160Z,20.93
2018-04-11T08:39:30.368Z,23.30
2018-04-11T08:41:58.802Z,21.67
2018-04-11T08:44:26.484Z,23.40
2018-04-11T08:46:55.664Z,23.73
2018-04-11T08:49:23.282Z,22.20
2018-04-11T08:51:50.979Z,22.40
2018-04-11T08:54:18.673Z,23.97
2018-04-11T08:56:46.695Z,23.77
2018-04-11T08:59:14.791Z,22.93
2018-04-11T09:01:42.464Z,24.63
2018-04-11T09:04:10.149Z,23.27
2018-04-11T09:06:39.013Z,23.10
2018-04-11T09:09:08.151Z,25.77
2018-04-11T09:11:36.591Z,26.83
2018-04-11T09:14:04.286Z,25.57
2018-04-11T09:16:32.762Z,26.77
2018-04-11T09:19:01.182Z,26.53
2018-04-11T09:21:28.867Z,26.97
2018-04-11T09:23:57.301Z,28.37
2018-04-11T09:26:25.308Z,29.50
2018-04-11T09:28:52.926Z,28.43
2018-04-11T09:31:21.376Z,27.23
2018-04-11T09:33:49.379Z,27.13
2018-04-11T09:36:17.801Z,28.37
2018-04-11T09:38:45.499Z,28.17
2018-04-11T09:41:13.616Z,27.17
2018-04-11T09:43:41.320Z,28.30
2018-04-11T09:46:09.010Z,27.40
2018-04-11T09:48:37.421Z,27.43
2018-04-11T09:51:05.101Z,27.30
2018-04-11T09:53:32.743Z,29.23
2018-04-11T09:56:01.230Z,27.40
2018-04-11T09:58:28.913Z,28.50
2018-04-11T10:00:56.634Z,29.10
2018-04-11T10:03:25.115Z,29.83
2018-04-11T10:05:53.354Z,30.10
2018-04-11T10:08:21.015Z,28.80
2018-04-11T10:10:49.079Z,29.53
2018-04-11T10:13:16.816Z,27.73
2018-04-11T10:15:44.491Z,28.17
2018-04-11T10:18:12.878Z,26.33
2018-04-11T10:20:40.997Z,28.97
2018-04-11T10:23:09.074Z,28.73
2018-04-11T10:25:36.699Z,27.70
2018-04-11T10:28:04.355Z,28.40
2018-04-11T10:30:32.090Z,28.10
2018-04-11T10:32:59.761Z,28.10
2018-04-11T10:35:27.390Z,28.83
2018-04-11T10:37:55.072Z,27.07
2018-04-11T10:40:22.750Z,27.30
2018-04-11T10:42:50.426Z,28.80
2018-04-11T10:45:18.084Z,26.87
2018-04-11T10:47:45.772Z,27.27
2018-04-11T10:50:13.431Z,25.90
2018-04-11T10:52:41.111Z,25.97
2018-04-11T10:55:09.490Z,26.13
2018-04-11T10:57:37.956Z,23.73
2018-04-11T11:00:06.451Z,22.90
2018-04-11T11:02:34.912Z,24.57
2018-04-11T11:05:02.543Z,23.33
2018-04-11T11:07:30.778Z,22.83
2018-04-11T11:09:58.490Z,24.23
2018-04-11T11:12:26.942Z,22.63
2018-04-11T11:14:55.358Z,24.40
2018-04-11T11:17:23.375Z,24.60
2018-04-11T11:20:02.023Z,24.67
2018-04-11T11:22:29.723Z,24.50
2018-04-11T11:24:57.806Z,25.37
2018-04-11T11:27:26.218Z,25.40
2018-04-11T11:29:53.871Z,25.80
2018-04-11T11:32:22.456Z,25.17
2018-04-11T11:34:50.133Z,25.30
2018-04-11T11:37:17.798Z,25.43
2018-04-11T11:39:45.939Z,26.87
2018-04-11T11:42:14.406Z,25.10
2018-04-11T11:44:42.790Z,25.43
2018-04-11T11:47:21.749Z,26.17
2018-04-11T11:49:49.456Z,26.37
2018-04-11T11:52:17.247Z,26.47
2018-04-11T11:54:45.664Z,26.03
2018-04-11T11:57:13.324Z,26.30
2018-04-11T11:59:41.059Z,27.60
2018-04-11T12:02:10.138Z,27.30
2018-04-11T12:04:38.613Z,30.60
2018-04-11T12:07:06.700Z,27.30
2018-04-11T12:09:35.113Z,28.43
2018-04-11T12:12:02.746Z,26.07
2018-04-11T12:14:31.967Z,25.37
2018-04-11T12:16:59.692Z,26.87
2018-04-11T12:19:27.375Z,28.30
2018-04-11T12:21:55.025Z,27.97
2018-04-11T12:24:23.466Z,27.43
2018-04-11T12:26:51.100Z,28.07
2018-04-11T12:29:18.824Z,28.00
2018-04-11T12:31:46.442Z,28.63
2018-04-11T12:34:14.499Z,29.63
2018-04-11T12:36:42.159Z,28.33
2018-04-11T12:39:10.620Z,28.47
2018-04-11T12:41:39.044Z,28.87
2018-04-11T12:44:06.706Z,28.37
2018-04-11T12:46:34.369Z,27.53
2018-04-11T12:49:02.059Z,29.33
2018-04-11T12:51:29.802Z,29.53
2018-04-11T12:53:57.483Z,28.50
2018-04-11T12:56:25.133Z,26.27
2018-04-11T12:58:54.059Z,26.20
2018-04-11T13:01:22.855Z,27.00
2018-04-11T13:03:50.489Z,27.07
2018-04-11T13:06:18.147Z,27.03
2018-04-11T13:08:45.786Z,23.73
2018-04-11T13:11:13.820Z,23.53
2018-04-11T13:13:41.519Z,25.77
2018-04-11T13:16:09.179Z,25.33
2018-04-11T13:18:36.898Z,27.40
2018-04-11T13:21:04.975Z,24.67
2018-04-11T13:23:32.601Z,26.70
2018-04-11T13:26:00.292Z,27.50
2018-04-11T13:28:29.435Z,29.03
2018-04-11T13:30:57.193Z,27.50
2018-04-11T13:33:25.271Z,26.67
2018-04-11T13:35:53.355Z,29.27
2018-04-11T13:38:21.004Z,29.30
2018-04-11T13:40:49.079Z,29.77
2018-04-11T13:43:16.827Z,31.50
2018-04-11T13:45:44.569Z,29.90
2018-04-11T13:48:12.192Z,29.00
2018-04-11T13:50:39.895Z,31.73
2018-04-11T13:53:08.329Z,28.10
2018-04-11T13:55:35.982Z,29.33
2018-04-11T13:58:03.683Z,30.13
2018-04-11T14:00:33.234Z,29.47
2018-04-11T14:03:01.647Z,30.53
2018-04-11T14:05:29.334Z,31.27
2018-04-11T14:07:57.729Z,30.20
2018-04-11T14:10:25.850Z,30.80
2018-04-11T14:12:53.540Z,32.03
2018-04-11T14:15:21.655Z,31.80
2018-04-11T14:17:50.076Z,34.23
2018-04-11T14:20:17.782Z,34.10
2018-04-11T14:22:45.405Z,33.20
2018-04-11T14:25:13.049Z,34.67
2018-04-11T14:27:40.753Z,34.47
2018-04-11T14:30:08.400Z,31.93
2018-04-11T14:32:36.819Z,31.50
2018-04-11T14:35:04.904Z,32.57
2018-04-11T14:37:32.564Z,29.13
2018-04-11T14:40:00.242Z,30.60
2018-04-11T14:42:27.960Z,30.47
2018-04-11T14:44:55.660Z,29.97
2018-04-11T14:47:24.124Z,29.57
2018-04-11T14:49:51.773Z,32.80
2018-04-11T14:52:19.438Z,32.30
2018-04-11T14:54:47.094Z,32.13
2018-04-11T14:57:14.746Z,31.00
2018-04-11T14:59:43.178Z,32.43
2018-04-11T15:02:12.252Z,34.10
2018-04-11T15:04:39.875Z,34.93
2018-04-11T15:07:08.333Z,33.70
2018-04-11T15:09:36.417Z,33.93
2018-04-11T15:12:04.536Z,35.17
2018-04-11T15:14:32.223Z,35.93
2018-04-11T15:16:59.847Z,36.03
2018-04-11T15:19:27.938Z,37.63
2018-04-11T15:21:55.991Z,36.77
2018-04-11T15:24:23.753Z,37.20
2018-04-11T15:26:51.386Z,36.23
2018-04-11T15:29:19.811Z,36.87
2018-04-11T15:31:47.469Z,37.87
2018-04-11T15:34:15.141Z,36.63
2018-04-11T15:36:42.814Z,36.57
2018-04-11T15:39:11.232Z,34.83
2018-04-11T15:41:40.435Z,35.93
2018-04-11T15:44:08.858Z,35.03
2018-04-11T15:46:38.677Z,36.47
2018-04-11T15:49:06.317Z,34.50
2018-04-11T15:51:34.738Z,33.70
2018-04-11T15:54:02.458Z,33.37
2018-04-11T15:56:30.913Z,35.03
2018-04-11T15:58:59.379Z,33.23
2018-04-11T16:01:27.855Z,34.30
2018-04-11T16:03:55.573Z,34.63
2018-04-11T16:06:23.222Z,33.47
2018-04-11T16:08:51.323Z,32.87
2018-04-11T16:11:19.007Z,30.57
2018-04-11T16:13:48.078Z,31.10
2018-04-11T16:16:17.024Z,30.30
2018-04-11T16:18:44.667Z,29.20
2018-04-11T16:21:13.115Z,28.03
2018-04-11T16:23:40.800Z,28.53
2018-04-11T16:26:08.863Z,28.87
2018-04-11T16:28:37.367Z,29.00
2018-04-11T16:31:05.426Z,30.23
2018-04-11T16:33:33.463Z,29.07
2018-04-11T16:36:01.142Z,27.70
2018-04-11T16:38:28.766Z,29.33
2018-04-11T16:40:56.449Z,27.93
2018-04-11T16:43:24.502Z,28.13
2018-04-11T16:45:52.169Z,29.37
2018-04-11T16:48:19.902Z,27.10
2018-04-11T16:50:47.588Z,27.47
2018-04-11T16:53:15.368Z,27.47
2018-04-11T16:55:43.019Z,28.83
2018-04-11T16:58:11.513Z,28.50
2018-04-11T17:00:39.195Z,28.43
2018-04-11T17:03:06.867Z,28.57
2018-04-11T17:05:34.600Z,28.00
2018-04-11T17:08:02.222Z,26.63
2018-04-11T17:10:30.684Z,23.83
2018-04-11T17:12:58.353Z,23.93
2018-04-11T17:15:26.782Z,24.70
2018-04-11T17:17:54.464Z,24.60
2018-04-11T17:20:35.225Z,23.47
2018-04-11T17:23:14.808Z,20.63
2018-04-11T17:25:55.098Z,19.00
2018-04-11T17:28:35.381Z,17.67
2018-04-11T17:31:15.517Z,17.73
2018-04-11T17:33:43.269Z,24.67
2018-04-11T17:36:11.024Z,19.80
2018-04-11T17:38:38.696Z,21.37
2018-04-11T17:41:06.425Z,20.50
2018-04-11T17:43:34.472Z,20.30
2018-04-11T17:46:02.191Z,21.00
2018-04-11T17:48:29.888Z,22.00
2018-04-11T17:50:59.542Z,22.30
2018-04-11T17:53:27.682Z,24.33
2018-04-11T17:55:57.182Z,23.57
2018-04-11T17:58:26.058Z,24.73
2018-04-11T18:00:54.250Z,25.07
2018-04-11T18:03:22.975Z,26.03
2018-04-11T18:05:51.425Z,26.57
2018-04-11T18:08:19.239Z,26.57
2018-04-11T18:10:46.907Z,27.27
2018-04-11T18:13:14.618Z,26.83
2018-04-11T18:15:42.307Z,30.03
2018-04-11T18:18:11.117Z,27.93
2018-04-11T18:20:39.348Z,28.97
2018-04-11T18:23:07.122Z,27.20
2018-04-11T18:25:34.783Z,28.33
2018-04-11T18:28:03.554Z,30.33
2018-04-11T18:30:32.045Z,29.60
2018-04-11T18:32:59.786Z,31.43
2018-04-11T18:35:27.460Z,29.00
2018-04-11T18:37:55.191Z,29.37
2018-04-11T18:40:23.236Z,29.23
2018-04-11T18:42:50.894Z,28.40
2018-04-11T18:45:19.411Z,30.17
2018-04-11T18:47:47.064Z,29.30
2018-04-11T18:50:15.095Z,29.83
2018-04-11T18:52:43.182Z,29.13
2018-04-11T18:55:10.888Z,28.53
2018-04-11T18:57:39.001Z,27.17
2018-04-11T19:00:07.463Z,27.77
2018-04-11T19:02:35.572Z,27.07
2018-04-11T19:05:03.276Z,27.03
2018-04-11T19:07:30.981Z,27.07
2018-04-11T19:09:59.017Z,28.13
2018-04-11T19:12:26.647Z,28.50
2018-04-11T19:14:54.748Z,27.33
2018-04-11T19:17:22.383Z,28.10
2018-04-11T19:19:50.033Z,26.10
2018-04-11T19:22:17.717Z,27.97
2018-04-11T19:24:45.413Z,27.27
2018-04-11T19:27:13.094Z,29.07
2018-04-11T19:29:40.715Z,27.10
2018-04-11T19:32:08.830Z,24.40
2018-04-11T19:34:37.000Z,25.27
2018-04-11T19:37:05.878Z,22.87
2018-04-11T19:39:34.271Z,24.37
2018-04-11T19:42:02.695Z,23.50
2018-04-11T19:44:31.597Z,24.13
2018-04-11T19:46:59.284Z,23.60
2018-04-11T19:49:27.351Z,24.23
2018-04-11T19:51:55.057Z,24.83
2018-04-11T19:54:22.691Z,24.80
2018-04-11T19:56:51.192Z,23.93
2018-04-11T19:59:20.336Z,23.47
2018-04-11T20:01:48.733Z,24.47
2018-04-11T20:04:16.423Z,24.37
2018-04-11T20:06:44.908Z,23.13
2018-04-11T20:09:13.356Z,22.77
2018-04-11T20:11:41.088Z,22.20
2018-04-11T20:14:09.309Z,20.63
2018-04-11T20:16:38.337Z,21.10
2018-04-11T20:19:06.420Z,20.80
2018-04-11T20:21:34.122Z,21.43
2018-04-11T20:24:01.822Z,21.07
2018-04-11T20:26:49.400Z,22.23
2018-04-11T20:29:17.514Z,22.13
2018-04-11T20:31:45.544Z,22.23
2018-04-11T20:34:13.651Z,22.57
2018-04-11T20:36:43.195Z,23.77
2018-04-11T20:39:11.238Z,23.83
2018-04-11T20:41:39.755Z,25.30
2018-04-11T20:44:07.883Z,25.53
2018-04-11T20:46:35.620Z,24.70
2018-04-11T20:49:03.299Z,24.70
2018-04-11T20:51:32.442Z,25.47
2018-04-11T20:54:00.533Z,25.43
2018-04-11T20:56:28.623Z,26.00
2018-04-11T20:58:56.687Z,26.13
2018-04-11T21:01:24.847Z,26.67
2018-04-11T21:03:52.912Z,25.73
2018-04-11T21:06:29.149Z,27.03
2018-04-11T21:08:57.228Z,25.53
2018-04-11T21:11:25.070Z,25.53
2018-04-11T21:13:53.517Z,27.03
2018-04-11T21:16:21.875Z,24.67
2018-04-11T21:18:49.546Z,22.77
2018-04-11T21:21:17.566Z,24.30
2018-04-11T21:23:46.003Z,25.37
2018-04-11T21:26:13.626Z,26.53
2018-04-11T21:28:41.277Z,27.40
2018-04-11T21:31:09.304Z,26.73
2018-04-11T21:33:37.050Z,24.73
2018-04-11T21:36:04.732Z,24.97
2018-04-11T21:38:32.791Z,26.13
2018-04-11T21:41:00.529Z,25.93
2018-04-11T21:43:28.161Z,25.27
2018-04-11T21:45:56.926Z,26.17
2018-04-11T21:48:24.956Z,26.93
2018-04-11T21:50:53.357Z,26.90
2018-04-11T21:53:22.098Z,27.47
2018-04-11T21:55:50.179Z,28.07
2018-04-11T21:58:17.824Z,26.53
2018-04-11T22:00:45.890Z,27.17
2018-04-11T22:03:14.313Z,28.17
2018-04-11T22:05:42.789Z,29.83
2018-04-11T22:08:11.635Z,29.77
2018-04-11T22:10:39.676Z,30.57
2018-04-11T22:13:07.689Z,31.90
2018-04-11T22:15:36.102Z,31.93
2018-04-11T22:18:03.779Z,29.30
2018-04-11T22:20:31.451Z,30.53
2018-04-11T22:22:59.114Z,31.63
2018-04-11T22:25:26.819Z,31.87
2018-04-11T22:27:55.584Z,30.30
2018-04-11T22:30:23.726Z,32.77
2018-04-11T22:32:51.374Z,34.40
2018-04-11T22:35:20.570Z,34.37
2018-04-11T22:37:48.267Z,34.53
2018-04-11T22:40:15.951Z,33.10
2018-04-11T22:42:44.394Z,34.87
2018-04-11T22:45:12.439Z,37.47
2018-04-11T22:47:40.488Z,38.77
2018-04-11T22:50:08.181Z,40.73
2018-04-11T22:52:35.885Z,42.73
2018-04-11T22:55:03.599Z,41.10
2018-04-11T22:57:31.655Z,39.03
2018-04-11T22:59:59.788Z,37.03
2018-04-11T23:02:27.474Z,38.67
2018-04-11T23:04:55.935Z,38.63
2018-04-11T23:07:23.673Z,39.63
2018-04-11T23:09:51.360Z,37.57
2018-04-11T23:12:20.456Z,38.30
2018-04-11T23:14:48.528Z,37.90
2018-04-11T23:17:16.558Z,37.83
2018-04-11T23:19:44.260Z,38.90
2018-04-11T23:22:11.952Z,38.53
2018-04-11T23:24:40.008Z,38.60
2018-04-11T23:27:08.409Z,40.57
2018-04-11T23:29:36.464Z,40.20
2018-04-11T23:32:05.483Z,38.23
2018-04-11T23:34:34.327Z,38.77
2018-04-11T23:37:01.990Z,37.37
2018-04-11T23:39:30.402Z,40.43
2018-04-11T23:41:58.475Z,38.93
2018-04-11T23:44:26.572Z,38.23
2018-04-11T23:46:54.299Z,39.87
2018-04-11T23:49:22.770Z,39.77
2018-04-11T23:51:50.443Z,38.30
2018-04-11T23:54:18.524Z,39.60
2018-04-11T23:56:46.564Z,38.17
2018-04-11T23:59:15.012Z,41.43
